createdAt,value
2018-06-05T00:00:24.520Z,17.60
2018-06-05T00:02:52.297Z,17.60
2018-06-05T00:05:20.220Z,17.50
2018-06-05T00:07:48.213Z,17.60
2018-06-05T00:10:16.212Z,17.60
2018-06-05T00:12:44.108Z,17.50
2018-06-05T00:15:11.942Z,17.40
2018-06-05T00:17:40.026Z,17.50
2018-06-05T00:20:07.792Z,17.30
2018-06-05T00:22:35.617Z,17.40
2018-06-05T00:25:03.433Z,17.40
2018-06-05T00:27:31.348Z,17.40
2018-06-05T00:32:26.751Z,17.40
2018-06-05T00:34:54.943Z,17.40
2018-06-05T00:37:23.029Z,17.40
2018-06-05T00:42:18.438Z,17.30
2018-06-05T00:44:49.341Z,17.40
2018-06-05T00:47:17.206Z,17.30
2018-06-05T00:49:45.344Z,17.30
2018-06-05T00:52:13.301Z,17.40
2018-06-05T00:54:41.152Z,17.40
2018-06-05T00:57:09.015Z,17.50
2018-06-05T00:59:36.921Z,17.60
2018-06-05T01:02:04.744Z,17.70
2018-06-05T01:04:32.493Z,17.70
2018-06-05T01:07:00.253Z,17.70
2018-06-05T01:09:37.440Z,17.60
2018-06-05T01:12:05.505Z,17.50
2018-06-05T01:14:33.291Z,17.50
2018-06-05T01:17:01.052Z,17.50
2018-06-05T01:19:28.865Z,17.50
2018-06-05T01:21:56.620Z,17.60
2018-06-05T01:24:24.405Z,17.50
2018-06-05T01:26:52.249Z,17.50
2018-06-05T01:29:20.265Z,17.40
2018-06-05T01:31:48.049Z,17.40
2018-06-05T01:34:15.980Z,17.40
2018-06-05T01:36:43.879Z,17.50
2018-06-05T01:39:16.801Z,17.40
2018-06-05T01:44:12.294Z,17.20
2018-06-05T01:46:40.104Z,17.20
2018-06-05T01:49:13.041Z,17.20
2018-06-05T01:51:40.801Z,17.10
2018-06-05T01:54:08.576Z,17.30
2018-06-05T01:56:36.368Z,17.40
2018-06-05T01:59:04.176Z,17.30
2018-06-05T02:01:31.980Z,17.30
2018-06-05T02:03:59.716Z,17.20
2018-06-05T02:06:27.505Z,17.20
2018-06-05T02:08:55.278Z,17.20
2018-06-05T02:11:23.047Z,17.20
2018-06-05T02:13:51.098Z,17.20
2018-06-05T02:16:18.905Z,17.20
2018-06-05T02:18:46.652Z,17.20
2018-06-05T02:21:14.429Z,17.20
2018-06-05T02:23:42.783Z,17.20
2018-06-05T02:26:10.574Z,17.20
2018-06-05T02:28:38.335Z,17.20
2018-06-05T02:31:06.109Z,17.20
2018-06-05T02:33:33.851Z,17.10
2018-06-05T02:36:01.630Z,17.10
2018-06-05T02:38:29.449Z,17.10
2018-06-05T02:40:57.297Z,17.20
2018-06-05T02:43:25.144Z,17.10
2018-06-05T02:45:53.157Z,17.00
2018-06-05T02:48:30.624Z,17.00
2018-06-05T02:50:58.450Z,16.90
2018-06-05T02:53:27.229Z,16.80
2018-06-05T02:55:55.913Z,16.80
2018-06-05T02:58:24.054Z,16.80
2018-06-05T03:00:52.082Z,16.70
2018-06-05T03:03:19.907Z,16.70
2018-06-05T03:05:47.846Z,16.70
2018-06-05T03:08:15.641Z,16.70
2018-06-05T03:10:43.549Z,16.90
2018-06-05T03:15:53.857Z,16.80
2018-06-05T03:18:21.797Z,17.00
2018-06-05T03:20:49.592Z,16.80
2018-06-05T03:23:17.405Z,16.80
2018-06-05T03:25:45.262Z,16.90
2018-06-05T03:28:13.085Z,17.00
2018-06-05T03:30:40.905Z,17.00
2018-06-05T03:35:36.428Z,16.80
2018-06-05T03:40:41.545Z,16.80
2018-06-05T03:43:24.053Z,16.90
2018-06-05T03:45:51.913Z,16.90
2018-06-05T03:48:19.829Z,16.80
2018-06-05T03:50:47.596Z,16.70
2018-06-05T03:53:15.425Z,16.70
2018-06-05T03:55:43.225Z,16.60
2018-06-05T03:58:11.174Z,16.70
2018-06-05T04:00:38.930Z,16.70
2018-06-05T04:03:06.726Z,16.60
2018-06-05T04:08:02.236Z,16.50
2018-06-05T04:10:30.024Z,16.60
2018-06-05T04:15:25.500Z,16.70
2018-06-05T04:17:53.393Z,16.80
2018-06-05T04:20:21.241Z,16.90
2018-06-05T04:22:49.037Z,17.00
2018-06-05T04:25:16.838Z,17.00
2018-06-05T04:27:49.933Z,16.80
2018-06-05T04:30:17.772Z,16.80
2018-06-05T04:32:45.540Z,16.80
2018-06-05T04:35:13.293Z,17.10
2018-06-05T04:37:41.071Z,17.10
2018-06-05T04:40:08.812Z,17.20
2018-06-05T04:42:36.533Z,17.30
2018-06-05T04:45:04.317Z,17.30
2018-06-05T04:47:32.188Z,17.40
2018-06-05T04:49:59.954Z,17.60
2018-06-05T04:52:27.744Z,17.60
2018-06-05T04:54:55.785Z,17.60
2018-06-05T04:57:24.000Z,17.60
2018-06-05T05:02:19.512Z,17.40
2018-06-05T05:07:15.074Z,17.30
2018-06-05T05:09:43.136Z,17.40
2018-06-05T05:12:10.957Z,17.60
2018-06-05T05:14:38.730Z,17.70
2018-06-05T05:17:06.533Z,17.70
2018-06-05T05:19:34.460Z,17.70
2018-06-05T05:22:02.804Z,17.60
2018-06-05T05:24:30.645Z,17.70
2018-06-05T05:26:58.805Z,17.90
2018-06-05T05:29:26.885Z,17.90
2018-06-05T05:31:57.005Z,17.90
2018-06-05T05:36:52.623Z,18.10
2018-06-05T05:39:25.955Z,18.00
2018-06-05T05:41:53.900Z,18.00
2018-06-05T05:44:21.658Z,18.00
2018-06-05T05:46:49.474Z,18.20
2018-06-05T05:49:17.268Z,18.40
2018-06-05T05:51:45.060Z,18.50
2018-06-05T05:56:40.428Z,18.60
2018-06-05T05:59:08.240Z,18.80
2018-06-05T06:01:35.994Z,18.90
2018-06-05T06:06:31.687Z,19.20
2018-06-05T06:08:59.462Z,19.40
2018-06-05T06:11:27.420Z,19.60
2018-06-05T06:13:55.258Z,19.80
2018-06-05T06:16:23.295Z,20.00
2018-06-05T06:18:51.068Z,20.20
2018-06-05T06:21:18.812Z,20.40
2018-06-05T06:23:46.595Z,20.80
2018-06-05T06:26:14.395Z,21.10
2018-06-05T06:28:43.010Z,21.40
2018-06-05T06:31:10.797Z,21.60
2018-06-05T06:33:38.577Z,21.70
2018-06-05T06:36:06.409Z,21.70
2018-06-05T06:38:34.323Z,21.90
2018-06-05T06:43:30.349Z,22.50
2018-06-05T06:45:58.245Z,23.00
2018-06-05T06:48:26.421Z,23.10
2018-06-05T06:50:54.424Z,23.20
2018-06-05T06:53:22.254Z,23.30
2018-06-05T06:55:50.038Z,23.40
2018-06-05T06:58:18.044Z,23.90
2018-06-05T07:00:45.853Z,24.10
2018-06-05T07:03:13.619Z,24.70
2018-06-05T07:05:41.394Z,25.10
2018-06-05T07:08:09.340Z,24.90
2018-06-05T07:13:04.806Z,25.30
2018-06-05T07:15:32.645Z,25.40
2018-06-05T07:18:00.717Z,25.50
2018-06-05T07:20:28.581Z,26.10
2018-06-05T07:22:56.633Z,26.20
2018-06-05T07:25:24.613Z,26.50
2018-06-05T07:27:52.518Z,26.40
2018-06-05T07:30:20.300Z,26.50
2018-06-05T07:32:48.983Z,26.50
2018-06-05T07:35:16.850Z,26.40
2018-06-05T07:37:44.677Z,26.50
2018-06-05T07:40:12.473Z,26.60
2018-06-05T07:42:40.266Z,27.10
2018-06-05T07:45:08.065Z,27.10
2018-06-05T07:47:35.917Z,27.40
2018-06-05T07:50:03.726Z,27.50
2018-06-05T07:52:31.574Z,27.40
2018-06-05T07:54:59.363Z,27.50
2018-06-05T07:57:27.250Z,27.70
2018-06-05T07:59:55.601Z,27.60
2018-06-05T08:02:23.531Z,27.70
2018-06-05T08:04:51.377Z,27.90
2018-06-05T08:07:19.165Z,28.00
2018-06-05T08:09:47.145Z,28.30
2018-06-05T08:12:14.926Z,28.40
2018-06-05T08:14:42.681Z,28.60
2018-06-05T08:17:10.493Z,28.80
2018-06-05T08:19:38.529Z,29.00
2018-06-05T08:22:06.337Z,29.10
2018-06-05T08:24:34.146Z,29.30
2018-06-05T08:27:01.985Z,29.40
2018-06-05T08:29:30.064Z,29.40
2018-06-05T08:31:57.984Z,29.80
2018-06-05T08:34:25.763Z,29.70
2018-06-05T08:36:53.695Z,29.80
2018-06-05T08:39:21.507Z,29.90
2018-06-05T08:41:49.295Z,30.10
2018-06-05T08:44:17.096Z,30.50
2018-06-05T08:46:44.901Z,30.70
2018-06-05T08:49:12.922Z,30.80
2018-06-05T08:51:40.753Z,30.90
2018-06-05T08:54:08.578Z,30.90
2018-06-05T08:56:37.197Z,31.20
2018-06-05T08:59:05.029Z,31.40
2018-06-05T09:01:33.104Z,31.50
2018-06-05T09:04:00.977Z,31.50
2018-06-05T09:06:29.017Z,31.60
2018-06-05T09:08:57.141Z,31.60
2018-06-05T09:11:25.232Z,31.80
2018-06-05T09:13:53.104Z,31.70
2018-06-05T09:16:20.937Z,31.80
2018-06-05T09:18:48.673Z,31.80
2018-06-05T09:21:16.471Z,32.00
2018-06-05T09:23:44.332Z,32.00
2018-06-05T09:26:12.137Z,32.10
2018-06-05T09:28:39.894Z,32.10
2018-06-05T09:33:35.423Z,32.10
2018-06-05T09:38:31.000Z,31.90
2018-06-05T09:40:59.009Z,32.10
2018-06-05T09:45:54.604Z,32.00
2018-06-05T09:48:22.364Z,32.10
2018-06-05T09:50:50.157Z,32.10
2018-06-05T09:53:17.945Z,32.20
2018-06-05T09:55:45.869Z,32.00
2018-06-05T09:58:13.755Z,31.90
2018-06-05T10:00:46.998Z,31.90
2018-06-05T10:03:14.782Z,31.80
2018-06-05T10:05:42.569Z,31.70
2018-06-05T10:08:10.541Z,31.80
2018-06-05T10:10:38.345Z,31.90
2018-06-05T10:13:06.455Z,31.90
2018-06-05T10:15:34.469Z,32.00
2018-06-05T10:18:02.569Z,31.90
2018-06-05T10:20:30.367Z,32.00
2018-06-05T10:22:58.143Z,31.90
2018-06-05T10:25:26.145Z,32.00
2018-06-05T10:27:54.461Z,32.00
2018-06-05T10:30:22.233Z,31.90
2018-06-05T10:32:49.989Z,32.00
2018-06-05T10:35:18.049Z,32.00
2018-06-05T10:37:45.910Z,32.10
2018-06-05T10:40:13.689Z,32.00
2018-06-05T10:42:42.181Z,32.00
2018-06-05T10:45:09.962Z,32.00
2018-06-05T10:47:37.773Z,32.10
2018-06-05T10:50:05.578Z,32.10
2018-06-05T10:52:33.413Z,32.30
2018-06-05T10:55:01.224Z,32.30
2018-06-05T10:57:29.021Z,32.20
2018-06-05T10:59:57.218Z,32.20
2018-06-05T11:02:25.197Z,32.20
2018-06-05T11:04:52.957Z,32.20
2018-06-05T11:07:20.726Z,32.10
2018-06-05T11:09:48.468Z,32.10
2018-06-05T11:12:16.277Z,32.30
2018-06-05T11:14:44.140Z,32.30
2018-06-05T11:17:11.930Z,32.40
2018-06-05T11:19:39.807Z,32.50
2018-06-05T11:22:07.664Z,32.50
2018-06-05T11:24:35.459Z,32.70
2018-06-05T11:27:03.283Z,32.70
2018-06-05T11:29:31.058Z,32.70
2018-06-05T11:31:59.048Z,32.70
2018-06-05T11:34:27.054Z,32.90
2018-06-05T11:36:55.224Z,32.90
2018-06-05T11:39:23.061Z,32.90
2018-06-05T11:41:50.811Z,32.70
2018-06-05T11:44:18.606Z,32.70
2018-06-05T11:49:14.129Z,32.60
2018-06-05T11:51:41.912Z,32.60
2018-06-05T11:54:09.722Z,32.80
2018-06-05T11:56:37.508Z,32.80
2018-06-05T11:59:05.512Z,33.00
2018-06-05T12:01:33.279Z,33.10
2018-06-05T12:04:01.083Z,33.00
2018-06-05T12:06:29.062Z,33.00
2018-06-05T12:08:57.125Z,32.80
2018-06-05T12:11:24.913Z,32.80
2018-06-05T12:13:52.731Z,32.80
2018-06-05T12:16:20.524Z,32.80
2018-06-05T12:18:48.537Z,32.80
2018-06-05T12:23:43.940Z,32.70
2018-06-05T12:26:11.765Z,32.50
2018-06-05T12:28:39.613Z,32.40
2018-06-05T12:31:08.345Z,32.30
2018-06-05T12:33:36.127Z,32.30
2018-06-05T12:36:04.021Z,32.10
2018-06-05T12:38:31.897Z,32.10
2018-06-05T12:40:59.802Z,31.90
2018-06-05T12:43:27.647Z,31.90
2018-06-05T12:45:55.432Z,31.70
2018-06-05T12:48:24.268Z,31.60
2018-06-05T12:50:52.107Z,31.60
2018-06-05T12:53:19.929Z,31.60
2018-06-05T12:55:47.699Z,31.50
2018-06-05T12:58:15.511Z,31.40
2018-06-05T13:00:43.287Z,31.40
2018-06-05T13:03:11.089Z,31.40
2018-06-05T13:05:38.873Z,31.30
2018-06-05T13:08:06.662Z,31.30
2018-06-05T13:10:34.421Z,31.40
2018-06-05T13:13:02.179Z,31.20
2018-06-05T13:15:30.074Z,30.90
2018-06-05T13:17:57.961Z,30.80
2018-06-05T13:20:25.864Z,30.70
2018-06-05T13:22:53.650Z,30.70
2018-06-05T13:25:21.413Z,30.70
2018-06-05T13:27:49.296Z,30.70
2018-06-05T13:30:17.072Z,30.70
2018-06-05T13:32:44.909Z,30.80
2018-06-05T13:35:12.714Z,30.80
2018-06-05T13:37:40.658Z,30.80
2018-06-05T13:40:08.461Z,30.80
2018-06-05T13:42:36.225Z,30.70
2018-06-05T13:45:04.235Z,30.70
2018-06-05T13:47:32.031Z,30.70
2018-06-05T13:49:59.876Z,30.70
2018-06-05T13:52:27.857Z,30.80
2018-06-05T13:54:55.589Z,30.90
2018-06-05T13:57:23.361Z,30.90
2018-06-05T13:59:51.151Z,31.00
2018-06-05T14:02:18.945Z,31.10
2018-06-05T14:07:14.413Z,31.20
2018-06-05T14:09:42.205Z,31.30
2018-06-05T14:12:09.978Z,31.00
2018-06-05T14:14:37.802Z,31.00
2018-06-05T14:17:07.261Z,30.90
2018-06-05T14:19:35.116Z,30.80
2018-06-05T14:22:02.997Z,30.80
2018-06-05T14:24:30.757Z,30.90
2018-06-05T14:26:58.744Z,30.80
2018-06-05T14:29:26.897Z,30.90
2018-06-05T14:31:54.686Z,30.90
2018-06-05T14:34:22.454Z,30.90
2018-06-05T14:36:50.236Z,30.90
2018-06-05T14:39:18.009Z,30.90
2018-06-05T14:41:45.882Z,30.90
2018-06-05T14:44:13.674Z,30.90
2018-06-05T14:46:41.417Z,30.90
2018-06-05T14:49:10.216Z,31.00
2018-06-05T14:51:37.989Z,31.00
2018-06-05T14:54:05.745Z,31.00
2018-06-05T14:56:33.554Z,31.10
2018-06-05T14:59:01.344Z,31.20
2018-06-05T15:01:29.345Z,31.00
2018-06-05T15:03:57.162Z,31.00
2018-06-05T15:06:24.939Z,30.90
2018-06-05T15:08:52.685Z,30.90
2018-06-05T15:11:20.457Z,30.90
2018-06-05T15:13:48.261Z,30.90
2018-06-05T15:16:16.029Z,30.90
2018-06-05T15:18:43.920Z,30.80
2018-06-05T15:21:11.697Z,30.90
2018-06-05T15:23:39.467Z,30.90
2018-06-05T15:28:34.944Z,30.70
2018-06-05T15:31:02.789Z,30.60
2018-06-05T15:33:30.576Z,30.50
2018-06-05T15:35:58.518Z,30.40
2018-06-05T15:38:26.356Z,30.30
2018-06-05T15:43:21.803Z,30.10
2018-06-05T15:45:49.632Z,30.00
2018-06-05T15:48:17.740Z,30.10
2018-06-05T15:50:45.509Z,30.00
2018-06-05T15:53:13.284Z,30.00
2018-06-05T15:55:41.091Z,30.10
2018-06-05T15:58:10.310Z,30.00
2018-06-05T16:03:05.772Z,30.00
2018-06-05T16:05:33.598Z,29.90
2018-06-05T16:08:01.387Z,29.80
2018-06-05T16:10:29.385Z,29.60
2018-06-05T16:12:57.205Z,29.60
2018-06-05T16:15:25.115Z,29.50
2018-06-05T16:17:53.065Z,29.50
2018-06-05T16:20:20.915Z,29.50
2018-06-05T16:22:48.688Z,29.50
2018-06-05T16:25:16.558Z,29.50
2018-06-05T16:27:44.310Z,29.50
2018-06-05T16:30:12.069Z,29.50
2018-06-05T16:32:39.898Z,29.60
2018-06-05T16:35:07.717Z,29.60
2018-06-05T16:37:35.509Z,29.70
2018-06-05T16:40:03.453Z,29.60
2018-06-05T16:42:31.249Z,29.60
2018-06-05T16:44:59.089Z,29.60
2018-06-05T16:47:26.826Z,29.60
2018-06-05T16:49:54.666Z,29.50
2018-06-05T16:52:22.702Z,29.50
2018-06-05T16:54:50.491Z,29.40
2018-06-05T16:57:18.365Z,29.30
2018-06-05T16:59:46.170Z,29.30
2018-06-05T17:02:13.972Z,29.30
2018-06-05T17:04:41.835Z,29.30
2018-06-05T17:07:10.006Z,29.20
2018-06-05T17:09:37.992Z,29.20
2018-06-05T17:12:05.797Z,29.20
2018-06-05T17:14:33.689Z,29.10
2018-06-05T17:17:01.763Z,29.00
2018-06-05T17:19:29.973Z,29.00
2018-06-05T17:21:57.751Z,28.90
2018-06-05T17:24:25.525Z,28.90
2018-06-05T17:26:53.285Z,28.80
2018-06-05T17:29:21.363Z,28.80
2018-06-05T17:31:49.169Z,28.80
2018-06-05T17:34:17.165Z,28.70
2018-06-05T17:36:44.998Z,28.70
2018-06-05T17:39:12.942Z,28.60
2018-06-05T17:44:08.398Z,28.60
2018-06-05T17:46:36.172Z,28.60
2018-06-05T17:49:04.038Z,28.60
2018-06-05T17:51:31.873Z,28.50
2018-06-05T17:53:59.770Z,28.50
2018-06-05T17:56:27.586Z,28.50
2018-06-05T17:58:55.661Z,28.50
2018-06-05T18:01:23.441Z,28.50
2018-06-05T18:03:51.267Z,28.40
2018-06-05T18:06:19.124Z,28.40
2018-06-05T18:08:47.113Z,28.60
2018-06-05T18:11:14.865Z,28.50
2018-06-05T18:13:42.656Z,28.40
2018-06-05T18:16:10.666Z,28.30
2018-06-05T18:18:38.450Z,28.30
2018-06-05T18:21:06.375Z,28.30
2018-06-05T18:23:34.156Z,28.20
2018-06-05T18:26:02.111Z,28.20
2018-06-05T18:28:29.977Z,28.10
2018-06-05T18:30:57.836Z,28.10
2018-06-05T18:33:25.634Z,28.00
2018-06-05T18:35:53.401Z,28.10
2018-06-05T18:38:21.213Z,28.00
2018-06-05T18:40:48.944Z,27.90
2018-06-05T18:43:16.691Z,27.90
2018-06-05T18:45:44.508Z,27.80
2018-06-05T18:48:12.273Z,27.90
2018-06-05T18:50:42.446Z,27.80
2018-06-05T18:53:10.185Z,27.70
2018-06-05T18:58:05.729Z,27.60
2018-06-05T19:00:33.494Z,27.70
2018-06-05T19:03:02.105Z,27.60
2018-06-05T19:05:30.015Z,27.50
2018-06-05T19:07:57.957Z,27.50
2018-06-05T19:10:25.751Z,27.60
2018-06-05T19:12:53.537Z,27.50
2018-06-05T19:17:49.049Z,27.00
2018-06-05T19:20:16.804Z,26.60
2018-06-05T19:22:44.549Z,26.40
2018-06-05T19:25:12.331Z,26.40
2018-06-05T19:27:40.201Z,26.20
2018-06-05T19:30:07.972Z,26.10
2018-06-05T19:32:35.763Z,25.90
2018-06-05T19:35:03.648Z,25.80
2018-06-05T19:37:31.637Z,25.50
2018-06-05T19:39:59.525Z,25.40
2018-06-05T19:42:27.321Z,25.10
2018-06-05T19:47:23.660Z,25.00
2018-06-05T19:49:51.513Z,24.80
2018-06-05T19:52:19.369Z,24.80
2018-06-05T19:54:47.178Z,24.80
2018-06-05T19:57:14.971Z,24.90
2018-06-05T19:59:42.752Z,24.90
2018-06-05T20:02:10.564Z,24.70
2018-06-05T20:04:38.418Z,24.70
2018-06-05T20:09:33.868Z,24.70
2018-06-05T20:12:01.820Z,24.60
2018-06-05T20:14:29.636Z,24.50
2018-06-05T20:16:57.407Z,24.50
2018-06-05T20:19:25.150Z,24.60
2018-06-05T20:21:52.947Z,24.60
2018-06-05T20:24:20.709Z,24.50
2018-06-05T20:26:48.593Z,24.40
2018-06-05T20:29:16.370Z,24.30
2018-06-05T20:34:11.760Z,24.30
2018-06-05T20:36:39.518Z,24.10
2018-06-05T20:39:08.370Z,24.20
2018-06-05T20:41:36.228Z,24.00
2018-06-05T20:44:04.197Z,24.00
2018-06-05T20:46:32.286Z,24.00
2018-06-05T20:49:00.289Z,23.90
2018-06-05T20:51:28.109Z,23.70
2018-06-05T20:56:38.324Z,23.60
2018-06-05T20:59:06.199Z,23.40
2018-06-05T21:01:33.991Z,23.40
2018-06-05T21:04:01.929Z,23.40
2018-06-05T21:06:29.736Z,23.40
2018-06-05T21:08:57.692Z,23.20
2018-06-05T21:11:25.489Z,23.10
2018-06-05T21:13:53.249Z,23.00
2018-06-05T21:16:21.033Z,22.90
2018-06-05T21:18:48.824Z,22.90
2018-06-05T21:21:16.622Z,22.90
2018-06-05T21:26:12.182Z,22.80
2018-06-05T21:28:39.963Z,22.70
2018-06-05T21:31:07.875Z,22.60
2018-06-05T21:33:38.917Z,22.70
2018-06-05T21:36:06.960Z,22.80
2018-06-05T21:38:36.315Z,22.80
2018-06-05T21:41:06.253Z,22.90
2018-06-05T21:43:34.258Z,22.80
2018-06-05T21:46:02.121Z,22.70
2018-06-05T21:48:30.309Z,22.50
2018-06-05T21:50:58.208Z,22.50
2018-06-05T21:53:25.970Z,22.60
2018-06-05T21:55:53.813Z,22.50
2018-06-05T21:58:21.773Z,22.40
2018-06-05T22:00:49.622Z,22.30
2018-06-05T22:03:17.553Z,22.20
2018-06-05T22:05:45.323Z,22.20
2018-06-05T22:08:14.165Z,22.10
2018-06-05T22:10:41.989Z,22.00
2018-06-05T22:13:09.871Z,22.30
2018-06-05T22:15:37.698Z,22.20
2018-06-05T22:18:05.763Z,22.00
2018-06-05T22:20:33.565Z,22.00
2018-06-05T22:23:01.581Z,21.80
2018-06-05T22:25:29.346Z,21.70
2018-06-05T22:27:57.145Z,21.70
2018-06-05T22:30:26.098Z,21.70
2018-06-05T22:32:53.885Z,21.60
2018-06-05T22:35:21.673Z,21.50
2018-06-05T22:37:49.423Z,21.40
2018-06-05T22:40:17.196Z,21.30
2018-06-05T22:42:44.957Z,21.40
2018-06-05T22:45:12.705Z,21.60
2018-06-05T22:47:42.561Z,21.50
2018-06-05T22:50:10.319Z,21.40
2018-06-05T22:52:38.525Z,21.30
2018-06-05T22:55:06.426Z,21.30
2018-06-05T22:57:34.256Z,21.50
2018-06-05T23:00:02.154Z,21.60
2018-06-05T23:02:29.896Z,21.70
2018-06-05T23:04:57.704Z,21.80
2018-06-05T23:07:25.493Z,21.80
2018-06-05T23:09:53.314Z,21.60
2018-06-05T23:12:21.124Z,21.50
2018-06-05T23:14:48.914Z,21.30
2018-06-05T23:17:16.704Z,21.40
2018-06-05T23:19:44.673Z,21.50
2018-06-05T23:22:12.425Z,21.50
2018-06-05T23:24:40.160Z,21.40
2018-06-05T23:27:07.965Z,21.20
2018-06-05T23:29:36.055Z,21.10
2018-06-05T23:32:03.844Z,21.00
2018-06-05T23:34:31.630Z,20.90
2018-06-05T23:36:59.401Z,20.90
2018-06-05T23:39:27.485Z,20.90
2018-06-05T23:41:55.504Z,21.00
2018-06-05T23:44:23.299Z,21.10
2018-06-05T23:46:51.082Z,21.00
2018-06-05T23:49:23.989Z,20.90
2018-06-05T23:51:56.362Z,20.70
2018-06-05T23:54:24.225Z,20.60
2018-06-05T23:56:51.984Z,20.70
2018-06-05T23:59:19.792Z,20.60
